createdAt,value
2023-05-10T00:04:28.856Z,7.80
2023-05-10T00:09:33.203Z,6.97
2023-05-10T00:14:37.394Z,8.48
2023-05-10T00:19:41.833Z,8.00
2023-05-10T00:24:45.514Z,9.57
2023-05-10T00:29:49.845Z,6.03
2023-05-10T00:34:54.228Z,5.75
2023-05-10T00:39:58.584Z,7.53
2023-05-10T00:45:03.279Z,6.72
2023-05-10T00:50:10.219Z,6.75
2023-05-10T00:55:14.238Z,7.70
2023-05-10T01:00:20.285Z,8.68
2023-05-10T01:05:24.932Z,14.30
2023-05-10T01:10:28.905Z,11.57
2023-05-10T01:15:33.381Z,13.05
2023-05-10T01:20:44.734Z,13.15
2023-05-10T01:26:06.754Z,16.52
2023-05-10T01:31:31.947Z,16.95
2023-05-10T01:36:50.218Z,17.60
2023-05-10T01:42:04.803Z,16.42
2023-05-10T01:47:17.034Z,13.55
2023-05-10T01:52:28.622Z,13.88
2023-05-10T01:57:38.887Z,15.40
2023-05-10T02:02:51.502Z,13.27
2023-05-10T02:07:56.789Z,11.23
2023-05-10T02:13:02.773Z,12.43
2023-05-10T02:18:07.496Z,9.32
2023-05-10T02:23:13.008Z,9.05
2023-05-10T02:28:19.078Z,9.80
2023-05-10T02:33:24.057Z,7.45
2023-05-10T02:38:31.905Z,6.80
2023-05-10T02:43:37.672Z,10.27
2023-05-10T02:48:41.448Z,6.13
2023-05-10T02:53:48.076Z,8.18
2023-05-10T02:58:52.548Z,6.53
2023-05-10T03:03:56.762Z,6.43
2023-05-10T03:09:00.963Z,10.02
2023-05-10T03:14:18.958Z,6.88
2023-05-10T03:19:26.308Z,7.15
2023-05-10T03:24:32.499Z,8.93
2023-05-10T03:29:40.047Z,6.45
2023-05-10T03:34:44.948Z,7.65
2023-05-10T03:39:49.303Z,6.57
2023-05-10T03:44:53.326Z,5.28
2023-05-10T03:49:57.700Z,8.02
2023-05-10T03:55:04.386Z,7.60
2023-05-10T04:00:09.708Z,8.70
2023-05-10T04:05:19.288Z,7.32
2023-05-10T04:10:24.342Z,6.75
2023-05-10T04:15:28.150Z,5.97
2023-05-10T04:20:34.303Z,8.75
2023-05-10T04:25:38.341Z,7.85
2023-05-10T04:30:42.748Z,7.47
2023-05-10T04:35:47.062Z,6.82
2023-05-10T04:40:51.240Z,6.78
2023-05-10T04:45:58.785Z,6.97
2023-05-10T04:51:04.849Z,5.55
2023-05-10T04:56:09.374Z,6.07
2023-05-10T05:01:13.626Z,5.28
2023-05-10T05:06:18.302Z,6.78
2023-05-10T05:11:22.553Z,7.85
2023-05-10T05:16:27.491Z,5.05
2023-05-10T05:21:33.470Z,4.82
2023-05-10T05:26:38.217Z,5.73
2023-05-10T05:31:41.968Z,7.00
2023-05-10T05:36:45.266Z,7.13
2023-05-10T05:41:49.469Z,4.45
2023-05-10T05:46:53.488Z,5.68
2023-05-10T05:52:05.136Z,7.05
2023-05-10T05:57:08.933Z,5.20
2023-05-10T06:02:12.944Z,4.28
2023-05-10T06:07:16.360Z,4.15
2023-05-10T06:12:22.852Z,6.05
2023-05-10T06:17:26.570Z,6.63
2023-05-10T06:22:29.986Z,5.85
2023-05-10T06:27:33.608Z,7.20
2023-05-10T06:32:38.079Z,5.43
2023-05-10T06:37:42.417Z,7.28
2023-05-10T06:42:47.328Z,6.68
2023-05-10T06:47:51.560Z,7.20
2023-05-10T06:52:54.819Z,7.53
2023-05-10T06:57:59.226Z,5.43
2023-05-10T07:03:03.051Z,7.13
2023-05-10T07:08:07.502Z,6.70
2023-05-10T07:13:11.901Z,4.30
2023-05-10T07:18:15.744Z,4.10
2023-05-10T07:23:19.237Z,6.45
2023-05-10T07:28:24.315Z,6.30
2023-05-10T07:33:27.770Z,6.80
2023-05-10T07:38:31.886Z,7.55
2023-05-10T07:43:35.935Z,7.05
2023-05-10T07:48:39.580Z,7.15
2023-05-10T07:53:43.788Z,10.55
2023-05-10T07:58:47.757Z,11.98
2023-05-10T08:03:52.771Z,17.08
2023-05-10T08:08:57.915Z,12.45
2023-05-10T08:14:01.289Z,11.70
2023-05-10T08:19:06.385Z,15.38
2023-05-10T08:24:10.465Z,9.52
2023-05-10T08:29:14.595Z,8.13
2023-05-10T08:34:18.787Z,6.72
2023-05-10T08:39:29.862Z,5.50
2023-05-10T08:44:37.937Z,9.23
2023-05-10T08:49:42.164Z,7.40
2023-05-10T08:54:45.957Z,6.57
2023-05-10T08:59:49.443Z,8.90
2023-05-10T09:04:53.786Z,10.23
2023-05-10T09:09:58.890Z,7.75
2023-05-10T09:15:03.813Z,7.80
2023-05-10T09:20:09.015Z,8.90
2023-05-10T09:25:17.547Z,9.43
2023-05-10T09:30:32.491Z,10.23
2023-05-10T09:35:35.952Z,14.45
2023-05-10T09:40:39.345Z,13.95
2023-05-10T09:45:42.952Z,15.45
2023-05-10T09:50:46.812Z,15.23
2023-05-10T09:55:51.824Z,14.98
2023-05-10T10:00:56.220Z,24.17
2023-05-10T10:06:00.400Z,15.40
2023-05-10T10:11:04.490Z,16.08
2023-05-10T10:16:11.126Z,12.68
2023-05-10T10:26:21.118Z,10.82
2023-05-10T10:31:33.932Z,15.97
2023-05-10T10:36:48.392Z,11.55
2023-05-10T10:41:53.554Z,9.40
2023-05-10T10:47:06.793Z,8.95
2023-05-10T10:52:32.527Z,9.25
2023-05-10T10:57:43.299Z,6.95
2023-05-10T11:02:52.964Z,7.35
2023-05-10T11:07:59.058Z,5.68
2023-05-10T11:13:05.620Z,5.10
2023-05-10T11:23:25.505Z,7.38
2023-05-10T11:28:29.730Z,14.00
2023-05-10T11:33:52.024Z,6.93
2023-05-10T11:38:57.084Z,6.55
2023-05-10T11:44:03.539Z,5.85
2023-05-10T11:49:09.520Z,6.50
2023-05-10T11:54:13.349Z,6.30
2023-05-10T11:59:16.815Z,4.38
2023-05-10T12:04:21.502Z,4.55
2023-05-10T12:14:37.055Z,6.03
2023-05-10T12:19:41.048Z,6.00
2023-05-10T12:24:47.495Z,6.35
2023-05-10T12:29:51.376Z,4.35
2023-05-10T12:34:55.418Z,5.93
2023-05-10T12:39:58.655Z,6.07
2023-05-10T12:45:02.086Z,5.93
2023-05-10T12:50:06.545Z,4.90
2023-05-10T12:55:10.515Z,6.07
2023-05-10T13:00:15.345Z,5.50
2023-05-10T13:05:19.210Z,6.90
2023-05-10T13:10:23.900Z,7.07
2023-05-10T13:15:28.327Z,6.18
2023-05-10T13:20:31.672Z,4.75
2023-05-10T13:25:35.687Z,8.73
2023-05-10T13:30:39.689Z,8.10
2023-05-10T13:35:43.744Z,8.52
2023-05-10T13:40:47.500Z,7.78
2023-05-10T13:45:51.180Z,9.43
2023-05-10T13:50:54.596Z,9.90
2023-05-10T13:55:58.466Z,16.10
2023-05-10T14:01:02.077Z,11.93
2023-05-10T14:06:06.755Z,12.05
2023-05-10T14:11:13.685Z,12.70
2023-05-10T14:21:21.593Z,15.10
2023-05-10T14:26:25.650Z,14.98
2023-05-10T14:31:31.692Z,13.70
2023-05-10T14:36:34.984Z,13.13
2023-05-10T14:41:40.522Z,13.27
2023-05-10T14:46:44.098Z,10.05
2023-05-10T14:51:48.470Z,16.75
2023-05-10T14:56:51.741Z,13.52
2023-05-10T15:01:55.528Z,13.88
2023-05-10T15:07:00.877Z,12.20
2023-05-10T15:12:04.205Z,13.75
2023-05-10T15:17:08.958Z,11.40
2023-05-10T15:22:12.903Z,13.57
2023-05-10T15:27:17.134Z,14.35
2023-05-10T15:32:21.354Z,12.93
2023-05-10T15:37:25.723Z,15.70
2023-05-10T15:42:29.674Z,15.60
2023-05-10T15:47:34.304Z,15.70
2023-05-10T15:52:38.450Z,16.13
2023-05-10T15:57:44.411Z,16.15
2023-05-10T16:02:47.811Z,16.07
2023-05-10T16:07:51.991Z,14.63
2023-05-10T16:12:55.944Z,16.90
2023-05-10T16:18:00.039Z,17.20
2023-05-10T16:23:06.570Z,19.95
2023-05-10T16:28:09.905Z,17.63
2023-05-10T16:33:14.514Z,19.30
2023-05-10T16:38:17.974Z,20.33
2023-05-10T16:43:24.082Z,21.52
2023-05-10T16:48:29.217Z,23.48
2023-05-10T16:53:32.993Z,23.20
2023-05-10T16:58:37.466Z,25.75
2023-05-10T17:03:42.021Z,23.65
2023-05-10T17:08:48.818Z,27.27
2023-05-10T17:13:53.728Z,27.25
2023-05-10T17:18:59.338Z,23.05
2023-05-10T17:24:03.576Z,23.30
2023-05-10T17:29:07.875Z,20.52
2023-05-10T17:34:11.967Z,21.92
2023-05-10T17:39:16.126Z,21.67
2023-05-10T17:44:19.811Z,19.02
2023-05-10T17:49:23.844Z,12.07
2023-05-10T17:54:27.651Z,13.40
2023-05-10T17:59:31.803Z,15.25
2023-05-10T18:04:35.867Z,13.32
2023-05-10T18:09:40.149Z,18.70
2023-05-10T18:14:43.355Z,19.48
2023-05-10T18:19:46.979Z,18.38
2023-05-10T18:24:51.117Z,17.63
2023-05-10T18:29:54.885Z,16.38
2023-05-10T18:34:58.368Z,17.95
2023-05-10T18:40:02.144Z,16.67
2023-05-10T18:45:06.868Z,16.65
2023-05-10T18:50:11.222Z,18.60
2023-05-10T18:55:15.589Z,19.90
2023-05-10T19:00:20.832Z,19.05
2023-05-10T19:05:30.282Z,21.67
2023-05-10T19:10:34.795Z,22.35
2023-05-10T19:15:38.508Z,20.60
2023-05-10T19:20:42.920Z,23.77
2023-05-10T19:25:47.359Z,20.40
2023-05-10T19:30:51.093Z,24.60
2023-05-10T19:35:56.419Z,20.40
2023-05-10T19:41:01.159Z,23.42
2023-05-10T19:46:05.516Z,26.48
2023-05-10T19:51:10.365Z,31.20
2023-05-10T19:56:14.882Z,26.02
2023-05-10T20:01:18.805Z,22.00
2023-05-10T20:06:23.774Z,25.55
2023-05-10T20:11:28.540Z,22.48
2023-05-10T20:16:33.829Z,22.23
2023-05-10T20:21:37.746Z,18.92
2023-05-10T20:26:42.146Z,19.67
2023-05-10T20:31:46.653Z,13.82
2023-05-10T20:36:50.550Z,15.82
2023-05-10T20:41:55.084Z,19.42
2023-05-10T20:46:58.873Z,22.27
2023-05-10T20:52:03.268Z,27.75
2023-05-10T20:57:07.806Z,30.30
2023-05-10T21:02:11.083Z,24.27
2023-05-10T21:07:15.312Z,24.80
2023-05-10T21:12:19.343Z,25.42
2023-05-10T21:17:23.372Z,26.20
2023-05-10T21:22:27.195Z,23.73
2023-05-10T21:27:31.286Z,24.52
2023-05-10T21:32:34.448Z,26.15
2023-05-10T21:37:38.655Z,23.08
2023-05-10T21:42:42.387Z,21.05
2023-05-10T21:47:46.500Z,22.20
2023-05-10T21:52:50.839Z,13.88
2023-05-10T21:57:54.756Z,17.40
2023-05-10T22:02:58.106Z,16.17
2023-05-10T22:08:01.973Z,15.63
2023-05-10T22:13:05.734Z,13.27
2023-05-10T22:18:09.254Z,12.63
2023-05-10T22:23:13.485Z,13.77
2023-05-10T22:28:17.012Z,11.18
2023-05-10T22:33:24.249Z,11.43
2023-05-10T22:43:30.902Z,10.82
2023-05-10T22:48:36.015Z,11.20
2023-05-10T22:53:39.934Z,9.20
2023-05-10T22:58:43.564Z,10.60
2023-05-10T23:03:46.810Z,14.50
2023-05-10T23:08:50.914Z,14.82
2023-05-10T23:14:03.448Z,15.95
2023-05-10T23:19:08.185Z,18.60
2023-05-10T23:24:12.169Z,21.00
2023-05-10T23:29:15.337Z,16.42
2023-05-10T23:34:19.046Z,21.33
2023-05-10T23:39:48.385Z,17.20
2023-05-10T23:44:52.701Z,18.13
2023-05-10T23:49:56.758Z,15.20
2023-05-10T23:55:00.290Z,18.58
